createdAt,value
2022-07-30T00:00:00.399Z,2.23
2022-07-30T00:03:02.284Z,2.30
2022-07-30T00:06:04.474Z,2.33
2022-07-30T00:09:06.354Z,2.10
2022-07-30T00:12:09.843Z,2.10
2022-07-30T00:15:11.959Z,2.40
2022-07-30T00:18:14.068Z,2.00
2022-07-30T00:21:20.188Z,2.47
2022-07-30T00:24:37.574Z,2.63
2022-07-30T00:27:40.209Z,2.20
2022-07-30T00:30:42.232Z,2.27
2022-07-30T00:33:44.263Z,2.00
2022-07-30T00:36:46.513Z,2.47
2022-07-30T00:39:49.025Z,2.33
2022-07-30T00:42:51.033Z,2.30
2022-07-30T00:45:53.179Z,2.00
2022-07-30T00:48:55.200Z,2.27
2022-07-30T00:51:57.442Z,2.23
2022-07-30T00:55:00.308Z,2.50
2022-07-30T00:58:02.882Z,2.17
2022-07-30T01:01:04.945Z,2.50
2022-07-30T01:04:12.004Z,1.90
2022-07-30T01:07:14.404Z,2.30
2022-07-30T01:10:16.343Z,2.10
2022-07-30T01:13:18.369Z,1.90
2022-07-30T01:16:20.338Z,2.00
2022-07-30T01:19:44.409Z,2.13
2022-07-30T01:22:52.873Z,2.10
2022-07-30T01:26:07.927Z,2.13
2022-07-30T01:29:11.071Z,2.03
2022-07-30T01:32:14.050Z,2.40
2022-07-30T01:35:16.814Z,2.00
2022-07-30T01:38:23.493Z,2.30
2022-07-30T01:41:25.913Z,2.33
2022-07-30T01:44:29.576Z,2.23
2022-07-30T01:47:33.958Z,2.37
2022-07-30T01:50:37.194Z,2.27
2022-07-30T01:53:40.863Z,2.20
2022-07-30T01:56:43.665Z,2.30
2022-07-30T01:59:50.084Z,1.90
2022-07-30T02:02:52.663Z,2.50
2022-07-30T02:05:58.477Z,2.53
2022-07-30T02:09:10.553Z,1.97
2022-07-30T02:12:31.861Z,2.27
2022-07-30T02:15:39.328Z,2.03
2022-07-30T02:18:45.086Z,2.30
2022-07-30T02:22:06.869Z,2.10
2022-07-30T02:25:16.149Z,2.20
2022-07-30T02:28:20.359Z,2.00
2022-07-30T02:31:25.176Z,2.20
2022-07-30T02:34:27.755Z,2.20
2022-07-30T02:37:41.555Z,2.40
2022-07-30T02:40:46.135Z,2.03
2022-07-30T02:43:49.319Z,1.83
2022-07-30T02:46:51.833Z,2.00
2022-07-30T02:49:54.970Z,1.83
2022-07-30T02:52:59.169Z,1.30
2022-07-30T02:56:02.884Z,2.20
2022-07-30T02:59:06.059Z,1.43
2022-07-30T03:02:09.703Z,1.50
2022-07-30T03:05:12.283Z,1.33
2022-07-30T03:08:20.028Z,1.60
2022-07-30T03:11:22.665Z,1.70
2022-07-30T03:14:25.344Z,1.60
2022-07-30T03:17:32.209Z,1.60
2022-07-30T03:20:35.373Z,1.90
2022-07-30T03:23:38.138Z,1.60
2022-07-30T03:26:40.589Z,1.83
2022-07-30T03:29:46.017Z,1.57
2022-07-30T03:32:48.825Z,1.40
2022-07-30T03:35:51.814Z,1.50
2022-07-30T03:38:54.370Z,1.70
2022-07-30T03:41:56.681Z,2.20
2022-07-30T03:45:02.078Z,1.77
2022-07-30T03:48:07.954Z,1.63
2022-07-30T03:51:11.142Z,1.97
2022-07-30T03:54:13.952Z,1.73
2022-07-30T03:57:17.664Z,1.57
2022-07-30T04:00:22.990Z,1.70
2022-07-30T04:03:29.860Z,1.10
2022-07-30T04:06:32.105Z,1.10
2022-07-30T04:09:34.475Z,1.20
2022-07-30T04:12:38.880Z,1.47
2022-07-30T04:16:05.895Z,1.20
2022-07-30T04:19:54.521Z,1.20
2022-07-30T04:22:58.475Z,1.60
2022-07-30T04:26:01.792Z,1.47
2022-07-30T04:29:06.885Z,1.43
2022-07-30T04:32:09.979Z,1.63
2022-07-30T04:35:12.049Z,1.47
2022-07-30T04:38:34.045Z,2.20
2022-07-30T04:41:48.978Z,1.67
2022-07-30T04:44:52.064Z,1.50
2022-07-30T04:47:54.231Z,1.70
2022-07-30T04:51:00.405Z,1.90
2022-07-30T04:54:03.985Z,2.07
2022-07-30T04:57:07.140Z,1.83
2022-07-30T05:00:10.144Z,2.50
2022-07-30T05:03:13.918Z,2.00
2022-07-30T05:06:16.425Z,2.20
2022-07-30T05:09:18.374Z,1.90
2022-07-30T05:12:20.310Z,1.73
2022-07-30T05:15:22.430Z,1.83
2022-07-30T05:18:39.164Z,2.30
2022-07-30T05:21:41.143Z,1.37
2022-07-30T05:24:44.426Z,1.93
2022-07-30T05:27:46.333Z,1.70
2022-07-30T05:30:49.551Z,1.40
2022-07-30T05:33:51.569Z,2.00
2022-07-30T05:36:54.296Z,2.10
2022-07-30T05:39:57.616Z,1.83
2022-07-30T05:43:05.134Z,2.40
2022-07-30T05:46:07.541Z,2.50
2022-07-30T05:49:09.772Z,2.90
2022-07-30T05:52:12.021Z,3.00
2022-07-30T05:55:14.136Z,3.17
2022-07-30T05:58:15.992Z,3.03
2022-07-30T06:01:18.217Z,2.90
2022-07-30T06:04:20.154Z,2.70
2022-07-30T06:07:22.154Z,2.43
2022-07-30T06:10:24.345Z,1.90
2022-07-30T06:13:26.441Z,1.70
2022-07-30T06:16:28.439Z,2.10
2022-07-30T06:19:30.701Z,1.90
2022-07-30T06:22:32.675Z,1.97
2022-07-30T06:25:34.648Z,2.50
2022-07-30T06:28:38.545Z,2.30
2022-07-30T06:31:41.905Z,2.57
2022-07-30T06:34:43.761Z,2.93
2022-07-30T06:38:05.878Z,2.90
2022-07-30T06:41:07.825Z,2.47
2022-07-30T06:44:09.762Z,2.77
2022-07-30T06:47:12.136Z,2.90
2022-07-30T06:50:14.543Z,2.50
2022-07-30T06:53:16.485Z,2.30
2022-07-30T06:56:18.515Z,2.50
2022-07-30T06:59:20.830Z,2.50
2022-07-30T07:02:22.817Z,2.90
2022-07-30T07:05:25.599Z,2.73
2022-07-30T07:08:27.561Z,2.70
2022-07-30T07:11:29.535Z,2.22
2022-07-30T07:14:31.481Z,2.40
2022-07-30T07:17:33.510Z,2.97
2022-07-30T07:20:35.780Z,2.75
2022-07-30T07:23:41.379Z,2.78
2022-07-30T07:26:44.445Z,1.98
2022-07-30T07:30:01.638Z,2.15
2022-07-30T07:33:07.458Z,2.10
2022-07-30T07:36:09.470Z,2.50
2022-07-30T07:39:13.164Z,2.92
2022-07-30T07:42:16.920Z,2.60
2022-07-30T07:45:19.006Z,2.50
2022-07-30T07:48:20.895Z,2.47
2022-07-30T07:51:47.265Z,2.35
2022-07-30T07:54:45.381Z,2.20
2022-07-30T07:57:48.010Z,2.67
2022-07-30T08:00:50.526Z,2.58
2022-07-30T08:03:52.555Z,3.28
2022-07-30T08:06:54.476Z,2.00
2022-07-30T08:09:56.390Z,2.10
2022-07-30T08:12:58.699Z,2.30
2022-07-30T08:16:02.789Z,2.55
2022-07-30T08:19:04.874Z,2.55
2022-07-30T08:22:07.080Z,2.63
2022-07-30T08:25:09.446Z,2.70
2022-07-30T08:28:35.345Z,2.00
2022-07-30T08:31:33.516Z,2.33
2022-07-30T08:34:35.606Z,2.50
2022-07-30T08:37:38.200Z,2.70
2022-07-30T08:40:40.367Z,2.90
2022-07-30T08:43:42.665Z,2.53
2022-07-30T08:46:47.301Z,2.58
2022-07-30T08:49:50.246Z,2.55
2022-07-30T08:52:55.973Z,2.35
2022-07-30T08:55:58.819Z,1.92
2022-07-30T08:59:01.930Z,2.40
2022-07-30T09:02:06.754Z,2.47
2022-07-30T09:05:12.480Z,2.55
2022-07-30T09:08:14.845Z,2.63
2022-07-30T09:11:21.346Z,2.28
2022-07-30T09:14:23.214Z,2.72
2022-07-30T09:17:56.577Z,2.47
2022-07-30T09:21:03.425Z,2.55
2022-07-30T09:24:13.797Z,2.83
2022-07-30T09:27:15.684Z,2.70
2022-07-30T09:30:17.974Z,2.95
2022-07-30T09:33:40.459Z,2.83
2022-07-30T09:36:43.697Z,2.75
2022-07-30T09:39:58.900Z,3.00
2022-07-30T09:43:06.572Z,2.60
2022-07-30T09:46:08.728Z,2.50
2022-07-30T09:49:18.491Z,2.50
2022-07-30T09:52:29.657Z,2.40
2022-07-30T09:55:36.180Z,2.65
2022-07-30T09:58:45.702Z,2.40
2022-07-30T10:02:00.771Z,2.20
2022-07-30T10:05:21.469Z,2.80
2022-07-30T10:08:59.003Z,2.20
2022-07-30T10:12:05.476Z,2.45
2022-07-30T10:15:13.874Z,2.72
2022-07-30T10:18:17.515Z,3.10
2022-07-30T10:21:20.796Z,2.58
2022-07-30T10:24:27.917Z,2.60
2022-07-30T10:27:32.219Z,2.80
2022-07-30T10:30:34.445Z,2.85
2022-07-30T10:33:39.955Z,3.05
2022-07-30T10:36:45.356Z,2.13
2022-07-30T10:40:04.714Z,2.78
2022-07-30T10:43:42.015Z,2.97
2022-07-30T10:47:06.916Z,2.90
2022-07-30T10:50:16.435Z,2.58
2022-07-30T11:03:23.714Z,2.65
2022-07-30T11:06:42.763Z,2.20
2022-07-30T11:09:44.690Z,2.25
2022-07-30T11:13:09.963Z,2.65
2022-07-30T11:16:12.076Z,2.40
2022-07-30T11:19:55.016Z,2.75
2022-07-30T11:22:41.690Z,2.05
2022-07-30T11:25:51.754Z,2.30
2022-07-30T11:28:56.584Z,2.20
2022-07-30T11:32:29.679Z,2.20
2022-07-30T11:35:34.915Z,2.00
2022-07-30T11:39:06.767Z,1.80
2022-07-30T11:42:29.324Z,1.75
2022-07-30T11:45:31.459Z,1.60
2022-07-30T11:48:34.470Z,1.95
2022-07-30T11:51:46.834Z,1.83
2022-07-30T11:54:54.038Z,1.60
2022-07-30T11:57:57.274Z,1.80
2022-07-30T12:01:09.019Z,1.95
2022-07-30T12:04:11.793Z,1.45
2022-07-30T12:07:13.725Z,1.27
2022-07-30T12:10:25.705Z,1.55
2022-07-30T12:13:44.905Z,1.60
2022-07-30T12:16:53.051Z,1.90
2022-07-30T12:19:55.171Z,1.85
2022-07-30T12:22:57.586Z,1.88
2022-07-30T12:26:00.458Z,1.70
2022-07-30T12:29:05.349Z,1.80
2022-07-30T12:32:07.636Z,1.52
2022-07-30T13:41:41.889Z,0.90
2022-07-30T13:44:43.794Z,1.00
2022-07-30T13:47:48.803Z,1.45
2022-07-30T13:50:50.817Z,1.20
2022-07-30T13:53:52.799Z,1.20
2022-07-30T13:56:55.005Z,1.00
2022-07-30T13:59:57.575Z,1.20
2022-07-30T14:08:32.521Z,1.20
2022-07-30T14:11:34.585Z,1.30
2022-07-30T14:14:36.419Z,1.38
2022-07-30T14:17:38.309Z,1.40
2022-07-30T14:20:40.600Z,1.27
2022-07-30T14:23:43.460Z,1.30
2022-07-30T14:26:45.350Z,1.23
2022-07-30T14:29:47.334Z,1.30
2022-07-30T14:32:51.550Z,1.13
2022-07-30T14:35:55.831Z,1.30
2022-07-30T14:38:58.989Z,1.20
2022-07-30T14:42:01.464Z,1.38
2022-07-30T14:45:05.110Z,1.58
2022-07-30T14:48:06.990Z,1.30
2022-07-30T14:51:17.717Z,1.25
2022-07-30T14:54:23.420Z,1.42
2022-07-30T14:57:25.324Z,1.10
2022-07-30T15:00:29.685Z,1.10
2022-07-30T15:03:35.286Z,1.45
2022-07-30T15:06:37.844Z,1.30
2022-07-30T15:09:39.716Z,1.20
2022-07-30T15:12:41.641Z,1.10
2022-07-30T15:15:46.012Z,1.20
2022-07-30T15:18:48.337Z,1.95
2022-07-30T15:21:50.525Z,1.35
2022-07-30T15:24:52.415Z,1.17
2022-07-30T15:27:54.310Z,1.48
2022-07-30T15:30:56.915Z,1.45
2022-07-30T15:33:58.859Z,1.10
2022-07-30T15:37:02.545Z,1.13
2022-07-30T15:40:05.080Z,1.25
2022-07-30T15:43:08.590Z,1.13
2022-07-30T15:46:12.240Z,1.40
2022-07-30T15:49:14.444Z,1.45
2022-07-30T15:52:16.370Z,1.33
2022-07-30T15:55:18.444Z,1.60
2022-07-30T15:58:20.312Z,1.10
2022-07-30T16:01:22.260Z,1.60
2022-07-30T16:04:31.638Z,1.20
2022-07-30T16:07:34.540Z,1.55
2022-07-30T16:10:36.480Z,2.05
2022-07-30T16:13:39.166Z,1.20
2022-07-30T16:16:41.263Z,1.30
2022-07-30T16:19:44.907Z,0.95
2022-07-30T16:22:47.706Z,1.13
2022-07-30T16:25:49.604Z,1.30
2022-07-30T16:28:51.509Z,1.20
2022-07-30T16:31:54.019Z,1.33
2022-07-30T16:34:55.906Z,1.00
2022-07-30T16:38:02.859Z,1.08
2022-07-30T16:41:05.034Z,1.13
2022-07-30T16:44:06.899Z,1.60
2022-07-30T16:47:13.468Z,1.23
2022-07-30T16:50:16.101Z,1.60
2022-07-30T16:53:18.284Z,1.20
2022-07-30T16:56:21.013Z,1.58
2022-07-30T16:59:23.211Z,1.42
2022-07-30T17:02:25.283Z,1.38
2022-07-30T17:05:27.510Z,1.20
2022-07-30T17:08:29.429Z,1.25
2022-07-30T17:11:47.780Z,1.40
2022-07-30T17:14:54.795Z,1.60
2022-07-30T17:17:56.724Z,1.50
2022-07-30T17:20:58.829Z,1.63
2022-07-30T17:24:00.904Z,1.45
2022-07-30T17:27:03.570Z,1.80
2022-07-30T17:30:06.915Z,1.42
2022-07-30T17:33:08.931Z,2.20
2022-07-30T17:36:12.900Z,3.50
2022-07-30T17:39:18.102Z,2.42
2022-07-30T17:42:39.104Z,1.80
2022-07-30T17:45:42.759Z,1.65
2022-07-30T17:48:45.655Z,2.20
2022-07-30T17:51:47.834Z,2.40
2022-07-30T17:54:49.801Z,2.80
2022-07-30T17:57:52.110Z,2.50
2022-07-30T18:00:54.023Z,1.90
2022-07-30T18:03:56.081Z,1.20
2022-07-30T18:06:57.970Z,1.70
2022-07-30T18:10:00.277Z,2.10
2022-07-30T18:13:26.618Z,1.80
2022-07-30T18:16:25.309Z,1.60
2022-07-30T18:19:27.549Z,1.38
2022-07-30T18:22:32.072Z,1.58
2022-07-30T18:25:51.212Z,1.58
2022-07-30T18:28:54.371Z,1.55
2022-07-30T18:31:57.037Z,1.92
2022-07-30T18:34:59.450Z,1.77
2022-07-30T18:38:01.297Z,1.70
2022-07-30T18:41:04.255Z,1.73
2022-07-30T18:44:06.155Z,2.13
2022-07-30T18:47:08.023Z,1.98
2022-07-30T18:50:11.815Z,2.35
2022-07-30T18:53:15.581Z,1.92
2022-07-30T18:56:17.788Z,2.00
2022-07-30T18:59:19.730Z,1.95
2022-07-30T19:02:25.574Z,2.20
2022-07-30T19:05:30.148Z,1.92
2022-07-30T19:08:34.272Z,2.10
2022-07-30T19:11:36.294Z,2.25
2022-07-30T19:14:39.546Z,2.20
2022-07-30T19:17:45.648Z,2.25
2022-07-30T19:20:50.787Z,2.30
2022-07-30T19:23:53.151Z,1.63
2022-07-30T19:26:56.685Z,1.70
2022-07-30T19:29:58.669Z,2.00
2022-07-30T19:33:14.823Z,2.30
2022-07-30T19:36:21.457Z,2.30
2022-07-30T19:39:23.335Z,2.45
2022-07-30T19:42:28.791Z,2.17
2022-07-30T19:45:47.444Z,2.50
2022-07-30T19:48:50.593Z,1.80
2022-07-30T19:52:07.315Z,1.70
2022-07-30T19:55:30.472Z,2.10
2022-07-30T19:58:33.088Z,1.50
2022-07-30T20:01:40.332Z,1.50
2022-07-30T20:04:43.790Z,1.80
2022-07-30T20:08:05.475Z,1.80
2022-07-30T20:11:07.889Z,1.98
2022-07-30T20:14:10.450Z,1.90
2022-07-30T20:17:12.536Z,1.85
2022-07-30T20:20:16.512Z,1.75
2022-07-30T20:23:18.414Z,1.40
2022-07-30T20:26:22.023Z,2.00
2022-07-30T20:29:26.046Z,1.70
2022-07-30T20:32:27.995Z,1.60
2022-07-30T20:35:30.621Z,1.75
2022-07-30T20:38:35.697Z,1.70
2022-07-30T20:41:39.321Z,1.90
2022-07-30T20:44:50.710Z,1.90
2022-07-30T20:47:56.408Z,1.75
2022-07-30T20:50:58.694Z,1.77
2022-07-30T20:54:00.600Z,1.70
2022-07-30T20:57:07.874Z,1.80
2022-07-30T21:00:20.085Z,1.75
2022-07-30T21:03:22.324Z,1.70
2022-07-30T21:06:24.371Z,1.70
2022-07-30T21:09:49.895Z,1.60
2022-07-30T21:12:58.752Z,1.47
2022-07-30T21:16:15.396Z,1.77
2022-07-30T21:19:18.520Z,1.50
2022-07-30T21:22:20.425Z,1.83
2022-07-30T21:25:33.064Z,1.43
2022-07-30T21:28:36.175Z,1.70
2022-07-30T21:32:11.427Z,1.50
2022-07-30T21:35:08.065Z,1.50
2022-07-30T21:38:10.799Z,1.70
2022-07-30T21:41:13.830Z,1.53
2022-07-30T21:44:17.490Z,1.93
2022-07-30T21:47:19.379Z,2.20
2022-07-30T21:50:21.367Z,1.87
2022-07-30T21:53:45.202Z,2.37
2022-07-30T21:56:48.504Z,1.67
2022-07-30T21:59:51.459Z,1.97
2022-07-30T22:02:54.095Z,1.97
2022-07-30T22:05:56.692Z,2.00
2022-07-30T22:08:58.570Z,1.77
2022-07-30T22:12:06.265Z,1.80
2022-07-30T22:15:11.932Z,1.97
2022-07-30T22:18:17.006Z,2.07
2022-07-30T22:21:23.240Z,1.70
2022-07-30T22:24:28.662Z,2.17
2022-07-30T22:27:39.485Z,2.10
2022-07-30T22:30:43.059Z,1.87
2022-07-30T22:33:45.455Z,2.20
2022-07-30T22:36:47.344Z,2.30
2022-07-30T22:39:52.343Z,1.80
2022-07-30T22:42:56.189Z,2.20
2022-07-30T22:45:58.144Z,1.83
2022-07-30T22:49:00.051Z,2.10
2022-07-30T22:52:08.897Z,2.20
2022-07-30T22:55:22.351Z,2.97
2022-07-30T22:58:26.376Z,2.20
2022-07-30T23:01:28.744Z,2.10
2022-07-30T23:04:30.763Z,2.20
2022-07-30T23:07:39.454Z,2.73
2022-07-30T23:10:41.980Z,2.20
2022-07-30T23:13:44.974Z,2.00
2022-07-30T23:16:50.179Z,2.30
2022-07-30T23:19:52.494Z,1.87
2022-07-30T23:22:54.489Z,1.47
2022-07-30T23:25:56.298Z,1.90
2022-07-30T23:28:58.252Z,1.77
2022-07-30T23:32:00.141Z,1.80
2022-07-30T23:35:02.033Z,1.77
2022-07-30T23:38:03.926Z,1.90
2022-07-30T23:41:07.422Z,2.10
2022-07-30T23:44:09.443Z,2.10
2022-07-30T23:47:11.327Z,2.00
2022-07-30T23:50:13.214Z,1.90
2022-07-30T23:53:15.393Z,2.07
2022-07-30T23:56:18.003Z,2.07
2022-07-30T23:59:19.922Z,1.70
